Egin, Idaho
Current Conditions -  °F | °C
As of 12:15 PM on Tuesday 21 Oct 2014 (Local Time) from KWYS Reporting Station
Light Rain Light Rain  
Wind Chill: 27°   Ceiling: Unl
Heat Index: 37°   Visibility: 5mi
Dew Point: 36°   Wind: 22mph
Humidity: 93%   Direction: 210°SSW
Pressure: 29.96"   Gusts: 30mph
Location:  44.2887°N, 111.507°W
Report Text: KWYS 211815Z AUTO 21019G26KT 5SM -RA SCT008 03/02 A2996 RMK AO2 P0001
Loading
Personal Weather Stations






























Interactive Weather Map
Tropical Storm Tracking
New forecast layout! Learn more

10-Day Weather Forecast

Advertisements
Track Severe Weather on mobile